Airfield :
LOGIN :

Register | Disclaimer

   EN    FR    IT 

 










Legend :    VFR   Marginal VFR   IFR   Intensive IFR   Very Intensive IFR
Visi :
Ceiling :
>= 8 km
>= 3000ft
5 to 8 km
1000 to 3000 ft
1500m to 5 km
500 to 1000 ft
800 to 1500m
200 to 500 ft
< 800m
< 200 ft
Symbols :   Thunderstorms  Fog  Heavy snow  Heavy precipitations  Wind > 20 kt
SIGMETs :     Misc.  Thunderstorms  Icing  Turbulence  Mountain Waves  Volcanic Ashes






- Airport Elevation : 1470 ft
- IATA code : KLU


LOWK - Klagenfurt

CURRENT METAR :
  • 181020Z VRB02KT 9999 FEW050 SCT300 15/10 Q1017 NOSIG

EXPIRED METARs :
  • 180950Z VRB02KT 9999 FEW050 SCT300 14/09 Q1018 NOSIG
  • 180920Z VRB01KT 9999 FEW007 SCT300 13/08 Q1018 NOSIG
  • 180850Z VRB02KT 9999 BCFG FEW003 SCT300 12/09 Q1018 NOSIG
  • 180820Z VRB01KT 5000 BCFG FEW002 SCT300 11/09 Q1018 BECMG NSW
  • 180750Z VRB02KT 5000 BCFG FEW002 SCT300 10/08 Q1018 BECMG NSW

TAF TAF LOWK
Valid from the 18 at 06:00 until the 19 at 06:00 UTC


180515Z 1806/1906 VRB02KT 9999 FEW040 TX18/1814Z TN05/1806Z
PROB40
TEMPO 1806/1808 0500 BCFG SCT002
TEMPO 1902/1906 0500 BCFG SCT001



MET'MAP, your aeronautical weather chart ! - Copyright ORBIFLY December 2007 - Disclaimer

ORBIFLY MET'MAP TEAM :

Programming & Development : Alexandra Zaïnal
Concept & Development : Baudouin d'Aumeries
Co-Development & Prog : Marc-Olivier Méhu
Technical & hardware support : Manuel Goepfert

Contact : metmap@orbifly.com




SOURCES & CREDITS :

   NOAA